sensor_id;sensor_type;location;lat;lon;timestamp;temperature;humidity
43697;DHT22;29301;47.620;19.560;2023-07-16T00:01:58;23.20;68.90
43697;DHT22;29301;47.620;19.560;2023-07-16T00:04:24;23.10;68.60
43697;DHT22;29301;47.620;19.560;2023-07-16T00:06:50;23.10;69.20
43697;DHT22;29301;47.620;19.560;2023-07-16T00:09:15;23.00;69.00
43697;DHT22;29301;47.620;19.560;2023-07-16T00:11:41;23.00;68.80
43697;DHT22;29301;47.620;19.560;2023-07-16T00:14:07;23.00;68.70
43697;DHT22;29301;47.620;19.560;2023-07-16T00:16:33;23.00;68.50
43697;DHT22;29301;47.620;19.560;2023-07-16T00:18:58;22.90;68.30
43697;DHT22;29301;47.620;19.560;2023-07-16T00:21:24;22.90;68.60
43697;DHT22;29301;47.620;19.560;2023-07-16T00:23:50;22.90;69.30
43697;DHT22;29301;47.620;19.560;2023-07-16T00:26:16;22.90;69.10
43697;DHT22;29301;47.620;19.560;2023-07-16T00:28:42;22.90;68.90
43697;DHT22;29301;47.620;19.560;2023-07-16T00:31:07;22.90;68.80
43697;DHT22;29301;47.620;19.560;2023-07-16T00:33:33;23.00;68.50
43697;DHT22;29301;47.620;19.560;2023-07-16T00:35:58;23.00;68.80
43697;DHT22;29301;47.620;19.560;2023-07-16T00:38:24;22.90;68.20
43697;DHT22;29301;47.620;19.560;2023-07-16T00:40:50;22.80;68.40
43697;DHT22;29301;47.620;19.560;2023-07-16T00:43:16;22.80;68.40
43697;DHT22;29301;47.620;19.560;2023-07-16T00:45:42;22.80;68.20
43697;DHT22;29301;47.620;19.560;2023-07-16T00:48:10;22.80;68.30
43697;DHT22;29301;47.620;19.560;2023-07-16T00:50:38;22.80;68.20
43697;DHT22;29301;47.620;19.560;2023-07-16T00:53:09;22.70;68.40
43697;DHT22;29301;47.620;19.560;2023-07-16T00:55:36;22.60;68.70
43697;DHT22;29301;47.620;19.560;2023-07-16T00:58:03;22.40;69.50
43697;DHT22;29301;47.620;19.560;2023-07-16T01:00:38;22.30;70.00
43697;DHT22;29301;47.620;19.560;2023-07-16T01:03:07;22.40;70.30
43697;DHT22;29301;47.620;19.560;2023-07-16T01:08:35;22.40;70.00
43697;DHT22;29301;47.620;19.560;2023-07-16T01:11:03;22.40;69.60
43697;DHT22;29301;47.620;19.560;2023-07-16T01:13:30;22.50;69.70
43697;DHT22;29301;47.620;19.560;2023-07-16T01:15:56;22.50;69.10
43697;DHT22;29301;47.620;19.560;2023-07-16T01:18:21;22.50;68.80
43697;DHT22;29301;47.620;19.560;2023-07-16T01:20:47;22.40;69.20
43697;DHT22;29301;47.620;19.560;2023-07-16T01:31:39;22.40;69.00
43697;DHT22;29301;47.620;19.560;2023-07-16T01:34:06;22.40;68.40
43697;DHT22;29301;47.620;19.560;2023-07-16T01:36:33;22.20;68.40
43697;DHT22;29301;47.620;19.560;2023-07-16T01:39:00;22.20;68.90
43697;DHT22;29301;47.620;19.560;2023-07-16T01:41:25;22.10;69.00
43697;DHT22;29301;47.620;19.560;2023-07-16T01:43:51;22.00;70.10
43697;DHT22;29301;47.620;19.560;2023-07-16T01:46:17;22.00;70.30
43697;DHT22;29301;47.620;19.560;2023-07-16T01:48:44;21.90;70.50
43697;DHT22;29301;47.620;19.560;2023-07-16T01:51:09;21.90;70.60
43697;DHT22;29301;47.620;19.560;2023-07-16T01:53:36;21.90;70.70
43697;DHT22;29301;47.620;19.560;2023-07-16T01:56:02;21.80;70.90
43697;DHT22;29301;47.620;19.560;2023-07-16T01:58:28;21.90;71.00
43697;DHT22;29301;47.620;19.560;2023-07-16T02:00:54;21.90;70.60
43697;DHT22;29301;47.620;19.560;2023-07-16T02:03:20;21.90;70.30
43697;DHT22;29301;47.620;19.560;2023-07-16T02:05:45;21.90;70.20
43697;DHT22;29301;47.620;19.560;2023-07-16T02:08:11;21.90;70.60
43697;DHT22;29301;47.620;19.560;2023-07-16T02:10:36;21.90;70.40
43697;DHT22;29301;47.620;19.560;2023-07-16T02:13:02;21.80;70.30
43697;DHT22;29301;47.620;19.560;2023-07-16T02:15:28;21.80;70.50
43697;DHT22;29301;47.620;19.560;2023-07-16T02:17:53;21.80;70.50
43697;DHT22;29301;47.620;19.560;2023-07-16T02:20:19;21.90;70.50
43697;DHT22;29301;47.620;19.560;2023-07-16T02:22:45;21.90;70.60
43697;DHT22;29301;47.620;19.560;2023-07-16T02:25:10;21.90;70.40
43697;DHT22;29301;47.620;19.560;2023-07-16T02:27:36;21.90;70.30
43697;DHT22;29301;47.620;19.560;2023-07-16T02:30:02;21.90;70.20
43697;DHT22;29301;47.620;19.560;2023-07-16T02:32:28;21.80;70.30
43697;DHT22;29301;47.620;19.560;2023-07-16T02:34:53;21.70;70.70
43697;DHT22;29301;47.620;19.560;2023-07-16T02:37:19;21.70;71.10
43697;DHT22;29301;47.620;19.560;2023-07-16T02:39:45;21.60;71.70
43697;DHT22;29301;47.620;19.560;2023-07-16T02:42:14;21.60;72.30
43697;DHT22;29301;47.620;19.560;2023-07-16T02:44:39;21.40;72.80
43697;DHT22;29301;47.620;19.560;2023-07-16T02:47:10;21.30;73.40
43697;DHT22;29301;47.620;19.560;2023-07-16T02:49:36;21.30;73.50
43697;DHT22;29301;47.620;19.560;2023-07-16T02:52:03;21.30;73.40
43697;DHT22;29301;47.620;19.560;2023-07-16T02:54:28;21.40;73.10
43697;DHT22;29301;47.620;19.560;2023-07-16T02:56:54;21.40;73.00
43697;DHT22;29301;47.620;19.560;2023-07-16T02:59:20;21.40;72.70
43697;DHT22;29301;47.620;19.560;2023-07-16T03:01:45;21.40;72.40
43697;DHT22;29301;47.620;19.560;2023-07-16T03:04:11;21.40;72.30
43697;DHT22;29301;47.620;19.560;2023-07-16T03:06:37;21.40;72.20
43697;DHT22;29301;47.620;19.560;2023-07-16T03:09:03;21.40;72.40
43697;DHT22;29301;47.620;19.560;2023-07-16T03:11:28;21.40;72.30
43697;DHT22;29301;47.620;19.560;2023-07-16T03:13:54;21.40;72.50
43697;DHT22;29301;47.620;19.560;2023-07-16T03:16:20;21.40;72.40
43697;DHT22;29301;47.620;19.560;2023-07-16T03:18:45;21.30;72.60
43697;DHT22;29301;47.620;19.560;2023-07-16T03:21:12;21.30;72.70
43697;DHT22;29301;47.620;19.560;2023-07-16T03:23:37;21.30;72.80
43697;DHT22;29301;47.620;19.560;2023-07-16T03:26:03;21.30;73.30
43697;DHT22;29301;47.620;19.560;2023-07-16T03:28:29;21.20;73.40
43697;DHT22;29301;47.620;19.560;2023-07-16T03:30:54;21.20;73.10
43697;DHT22;29301;47.620;19.560;2023-07-16T03:33:20;21.20;73.30
43697;DHT22;29301;47.620;19.560;2023-07-16T03:35:47;21.10;73.80
43697;DHT22;29301;47.620;19.560;2023-07-16T03:38:13;21.10;74.40
43697;DHT22;29301;47.620;19.560;2023-07-16T03:40:39;21.10;74.90
43697;DHT22;29301;47.620;19.560;2023-07-16T03:43:05;21.10;75.60
43697;DHT22;29301;47.620;19.560;2023-07-16T03:45:31;21.10;76.00
43697;DHT22;29301;47.620;19.560;2023-07-16T03:47:57;21.10;75.40
43697;DHT22;29301;47.620;19.560;2023-07-16T03:50:22;21.00;75.40
43697;DHT22;29301;47.620;19.560;2023-07-16T03:52:48;21.00;75.00
43697;DHT22;29301;47.620;19.560;2023-07-16T03:55:14;21.00;74.40
43697;DHT22;29301;47.620;19.560;2023-07-16T03:57:40;20.90;74.10
43697;DHT22;29301;47.620;19.560;2023-07-16T04:00:06;20.90;74.20
43697;DHT22;29301;47.620;19.560;2023-07-16T04:02:34;20.90;74.30
43697;DHT22;29301;47.620;19.560;2023-07-16T04:04:59;21.00;74.60
43697;DHT22;29301;47.620;19.560;2023-07-16T04:07:25;21.00;74.90
43697;DHT22;29301;47.620;19.560;2023-07-16T04:09:51;21.00;74.90
43697;DHT22;29301;47.620;19.560;2023-07-16T04:12:17;21.10;74.60
43697;DHT22;29301;47.620;19.560;2023-07-16T04:14:43;21.10;74.10
43697;DHT22;29301;47.620;19.560;2023-07-16T04:17:09;21.20;74.30
43697;DHT22;29301;47.620;19.560;2023-07-16T04:19:34;21.30;74.60
43697;DHT22;29301;47.620;19.560;2023-07-16T04:22:00;21.30;75.20
43697;DHT22;29301;47.620;19.560;2023-07-16T04:24:26;21.30;76.30
43697;DHT22;29301;47.620;19.560;2023-07-16T04:26:55;21.30;76.20
43697;DHT22;29301;47.620;19.560;2023-07-16T04:29:20;21.40;75.90
43697;DHT22;29301;47.620;19.560;2023-07-16T04:31:46;21.40;76.30
43697;DHT22;29301;47.620;19.560;2023-07-16T04:34:12;21.40;76.70
43697;DHT22;29301;47.620;19.560;2023-07-16T04:36:38;21.40;76.40
43697;DHT22;29301;47.620;19.560;2023-07-16T04:39:04;21.50;76.00
43697;DHT22;29301;47.620;19.560;2023-07-16T04:41:30;21.50;76.40
43697;DHT22;29301;47.620;19.560;2023-07-16T04:43:56;21.50;77.00
43697;DHT22;29301;47.620;19.560;2023-07-16T04:46:21;21.50;77.00
43697;DHT22;29301;47.620;19.560;2023-07-16T04:48:47;21.60;76.00
43697;DHT22;29301;47.620;19.560;2023-07-16T04:51:13;21.60;75.40
43697;DHT22;29301;47.620;19.560;2023-07-16T04:53:39;21.60;74.90
43697;DHT22;29301;47.620;19.560;2023-07-16T04:56:04;21.70;74.10
43697;DHT22;29301;47.620;19.560;2023-07-16T04:58:37;21.70;73.40
43697;DHT22;29301;47.620;19.560;2023-07-16T05:01:03;21.70;72.80
43697;DHT22;29301;47.620;19.560;2023-07-16T05:03:29;21.80;72.90
43697;DHT22;29301;47.620;19.560;2023-07-16T05:05:54;21.80;73.20
43697;DHT22;29301;47.620;19.560;2023-07-16T05:08:20;21.80;72.70
43697;DHT22;29301;47.620;19.560;2023-07-16T05:10:46;21.90;72.10
43697;DHT22;29301;47.620;19.560;2023-07-16T05:13:11;21.90;72.20
43697;DHT22;29301;47.620;19.560;2023-07-16T05:15:37;21.80;72.90
43697;DHT22;29301;47.620;19.560;2023-07-16T05:18:03;21.90;73.00
43697;DHT22;29301;47.620;19.560;2023-07-16T05:20:29;21.90;73.30
43697;DHT22;29301;47.620;19.560;2023-07-16T05:22:55;21.90;73.70
43697;DHT22;29301;47.620;19.560;2023-07-16T05:25:20;22.00;74.00
43697;DHT22;29301;47.620;19.560;2023-07-16T05:27:46;22.10;73.80
43697;DHT22;29301;47.620;19.560;2023-07-16T05:30:12;22.10;73.70
43697;DHT22;29301;47.620;19.560;2023-07-16T05:32:37;22.20;73.90
43697;DHT22;29301;47.620;19.560;2023-07-16T05:35:04;22.30;73.40
43697;DHT22;29301;47.620;19.560;2023-07-16T05:37:30;22.30;73.90
43697;DHT22;29301;47.620;19.560;2023-07-16T05:39:55;22.40;73.60
43697;DHT22;29301;47.620;19.560;2023-07-16T05:42:21;22.50;72.70
43697;DHT22;29301;47.620;19.560;2023-07-16T05:44:49;22.50;71.90
43697;DHT22;29301;47.620;19.560;2023-07-16T05:47:15;22.60;71.50
43697;DHT22;29301;47.620;19.560;2023-07-16T05:49:41;22.80;69.90
43697;DHT22;29301;47.620;19.560;2023-07-16T05:52:06;22.90;69.20
43697;DHT22;29301;47.620;19.560;2023-07-16T05:54:32;23.00;67.50
43697;DHT22;29301;47.620;19.560;2023-07-16T05:56:58;23.10;67.50
43697;DHT22;29301;47.620;19.560;2023-07-16T05:59:24;23.30;67.30
43697;DHT22;29301;47.620;19.560;2023-07-16T06:01:50;23.40;65.90
43697;DHT22;29301;47.620;19.560;2023-07-16T06:04:15;23.50;65.70
43697;DHT22;29301;47.620;19.560;2023-07-16T06:06:41;23.70;64.90
43697;DHT22;29301;47.620;19.560;2023-07-16T06:09:07;23.90;63.20
43697;DHT22;29301;47.620;19.560;2023-07-16T06:11:32;24.00;62.20
43697;DHT22;29301;47.620;19.560;2023-07-16T06:13:58;24.20;61.30
43697;DHT22;29301;47.620;19.560;2023-07-16T06:16:24;24.40;59.80
43697;DHT22;29301;47.620;19.560;2023-07-16T06:18:49;24.60;59.70
43697;DHT22;29301;47.620;19.560;2023-07-16T06:21:15;24.80;59.20
43697;DHT22;29301;47.620;19.560;2023-07-16T06:23:41;25.00;57.90
43697;DHT22;29301;47.620;19.560;2023-07-16T06:26:07;25.20;57.50
43697;DHT22;29301;47.620;19.560;2023-07-16T06:28:33;25.40;57.40
43697;DHT22;29301;47.620;19.560;2023-07-16T06:30:59;25.70;55.60
43697;DHT22;29301;47.620;19.560;2023-07-16T06:33:24;25.80;54.60
43697;DHT22;29301;47.620;19.560;2023-07-16T06:35:52;25.90;53.00
43697;DHT22;29301;47.620;19.560;2023-07-16T06:38:18;25.90;53.60
43697;DHT22;29301;47.620;19.560;2023-07-16T06:40:50;26.10;54.10
43697;DHT22;29301;47.620;19.560;2023-07-16T06:43:17;26.30;52.80
43697;DHT22;29301;47.620;19.560;2023-07-16T06:45:43;26.50;52.00
43697;DHT22;29301;47.620;19.560;2023-07-16T06:48:08;26.80;51.00
43697;DHT22;29301;47.620;19.560;2023-07-16T06:50:34;27.00;50.80
43697;DHT22;29301;47.620;19.560;2023-07-16T06:53:00;27.10;48.20
43697;DHT22;29301;47.620;19.560;2023-07-16T06:55:26;27.10;48.20
43697;DHT22;29301;47.620;19.560;2023-07-16T06:57:52;27.20;47.90
43697;DHT22;29301;47.620;19.560;2023-07-16T07:00:18;27.20;47.20
43697;DHT22;29301;47.620;19.560;2023-07-16T07:02:43;27.20;46.80
43697;DHT22;29301;47.620;19.560;2023-07-16T07:05:09;27.30;45.50
43697;DHT22;29301;47.620;19.560;2023-07-16T07:07:35;27.40;45.00
43697;DHT22;29301;47.620;19.560;2023-07-16T07:10:01;27.50;45.10
43697;DHT22;29301;47.620;19.560;2023-07-16T07:12:27;27.80;45.10
43697;DHT22;29301;47.620;19.560;2023-07-16T07:14:52;28.10;44.90
43697;DHT22;29301;47.620;19.560;2023-07-16T07:17:18;28.10;44.20
43697;DHT22;29301;47.620;19.560;2023-07-16T07:19:44;28.10;44.90
43697;DHT22;29301;47.620;19.560;2023-07-16T07:22:10;28.40;44.30
43697;DHT22;29301;47.620;19.560;2023-07-16T07:24:35;28.60;43.70
43697;DHT22;29301;47.620;19.560;2023-07-16T07:27:01;28.90;42.50
43697;DHT22;29301;47.620;19.560;2023-07-16T07:29:27;29.10;43.00
43697;DHT22;29301;47.620;19.560;2023-07-16T07:31:53;29.40;42.60
43697;DHT22;29301;47.620;19.560;2023-07-16T07:34:19;29.60;41.10
43697;DHT22;29301;47.620;19.560;2023-07-16T07:36:45;29.80;41.40
43697;DHT22;29301;47.620;19.560;2023-07-16T07:39:11;29.90;40.70
43697;DHT22;29301;47.620;19.560;2023-07-16T07:41:38;29.70;40.40
43697;DHT22;29301;47.620;19.560;2023-07-16T07:44:04;29.80;41.40
43697;DHT22;29301;47.620;19.560;2023-07-16T07:46:30;30.00;40.80
43697;DHT22;29301;47.620;19.560;2023-07-16T07:48:56;30.30;40.20
43697;DHT22;29301;47.620;19.560;2023-07-16T07:51:21;30.40;39.30
43697;DHT22;29301;47.620;19.560;2023-07-16T07:53:47;30.50;39.20
43697;DHT22;29301;47.620;19.560;2023-07-16T07:56:13;30.60;38.50
43697;DHT22;29301;47.620;19.560;2023-07-16T07:58:38;30.80;38.90
43697;DHT22;29301;47.620;19.560;2023-07-16T08:01:06;30.80;38.30
43697;DHT22;29301;47.620;19.560;2023-07-16T08:03:32;30.70;37.80
43697;DHT22;29301;47.620;19.560;2023-07-16T08:05:58;30.60;37.00
43697;DHT22;29301;47.620;19.560;2023-07-16T08:08:23;30.40;38.20
43697;DHT22;29301;47.620;19.560;2023-07-16T08:10:49;30.50;38.00
43697;DHT22;29301;47.620;19.560;2023-07-16T08:13:15;30.50;37.80
43697;DHT22;29301;47.620;19.560;2023-07-16T08:15:40;30.60;37.50
43697;DHT22;29301;47.620;19.560;2023-07-16T08:18:06;30.60;37.00
43697;DHT22;29301;47.620;19.560;2023-07-16T08:20:32;30.80;38.00
43697;DHT22;29301;47.620;19.560;2023-07-16T08:22:57;30.90;36.00
43697;DHT22;29301;47.620;19.560;2023-07-16T08:25:23;31.00;37.20
43697;DHT22;29301;47.620;19.560;2023-07-16T08:27:49;31.30;37.30
43697;DHT22;29301;47.620;19.560;2023-07-16T08:30:15;31.10;35.80
43697;DHT22;29301;47.620;19.560;2023-07-16T08:32:40;30.80;36.00
43697;DHT22;29301;47.620;19.560;2023-07-16T08:35:06;30.60;36.00
43697;DHT22;29301;47.620;19.560;2023-07-16T08:37:32;30.80;37.20
43697;DHT22;29301;47.620;19.560;2023-07-16T08:39:58;31.20;36.10
43697;DHT22;29301;47.620;19.560;2023-07-16T08:42:24;31.20;36.00
43697;DHT22;29301;47.620;19.560;2023-07-16T08:44:50;31.20;36.10
43697;DHT22;29301;47.620;19.560;2023-07-16T08:47:16;31.20;37.00
43697;DHT22;29301;47.620;19.560;2023-07-16T08:49:55;31.40;37.00
43697;DHT22;29301;47.620;19.560;2023-07-16T08:52:21;31.30;36.60
43697;DHT22;29301;47.620;19.560;2023-07-16T08:54:47;31.50;35.80
43697;DHT22;29301;47.620;19.560;2023-07-16T08:57:14;31.70;36.10
43697;DHT22;29301;47.620;19.560;2023-07-16T08:59:40;31.90;34.60
43697;DHT22;29301;47.620;19.560;2023-07-16T09:02:06;31.70;35.70
43697;DHT22;29301;47.620;19.560;2023-07-16T09:04:32;31.70;35.40
43697;DHT22;29301;47.620;19.560;2023-07-16T09:06:58;31.70;35.80
43697;DHT22;29301;47.620;19.560;2023-07-16T09:09:24;31.80;35.80
43697;DHT22;29301;47.620;19.560;2023-07-16T09:11:50;31.80;35.70
43697;DHT22;29301;47.620;19.560;2023-07-16T09:14:19;31.80;35.30
43697;DHT22;29301;47.620;19.560;2023-07-16T09:16:52;31.90;35.60
43697;DHT22;29301;47.620;19.560;2023-07-16T09:19:18;32.30;35.80
43697;DHT22;29301;47.620;19.560;2023-07-16T09:21:50;32.80;34.70
43697;DHT22;29301;47.620;19.560;2023-07-16T09:24:18;32.70;33.10
43697;DHT22;29301;47.620;19.560;2023-07-16T09:26:52;32.20;33.90
43697;DHT22;29301;47.620;19.560;2023-07-16T09:29:18;32.10;34.30
43697;DHT22;29301;47.620;19.560;2023-07-16T09:32:00;32.00;34.20
43697;DHT22;29301;47.620;19.560;2023-07-16T09:34:31;32.00;35.30
43697;DHT22;29301;47.620;19.560;2023-07-16T09:37:00;31.90;35.20
43697;DHT22;29301;47.620;19.560;2023-07-16T09:39:27;32.00;34.30
43697;DHT22;29301;47.620;19.560;2023-07-16T09:41:53;32.30;34.30
43697;DHT22;29301;47.620;19.560;2023-07-16T09:44:21;32.60;33.70
43697;DHT22;29301;47.620;19.560;2023-07-16T09:46:47;32.70;33.70
43697;DHT22;29301;47.620;19.560;2023-07-16T09:49:15;32.60;34.60
43697;DHT22;29301;47.620;19.560;2023-07-16T09:51:42;32.50;34.40
43697;DHT22;29301;47.620;19.560;2023-07-16T09:54:08;32.30;34.30
43697;DHT22;29301;47.620;19.560;2023-07-16T09:56:45;32.50;34.60
43697;DHT22;29301;47.620;19.560;2023-07-16T09:59:16;32.30;33.60
43697;DHT22;29301;47.620;19.560;2023-07-16T10:01:43;32.40;33.70
43697;DHT22;29301;47.620;19.560;2023-07-16T10:04:17;32.70;33.00
43697;DHT22;29301;47.620;19.560;2023-07-16T10:12:16;33.20;32.40
43697;DHT22;29301;47.620;19.560;2023-07-16T10:14:48;33.20;32.90
43697;DHT22;29301;47.620;19.560;2023-07-16T10:17:21;33.50;32.20
43697;DHT22;29301;47.620;19.560;2023-07-16T10:19:51;33.70;31.40
43697;DHT22;29301;47.620;19.560;2023-07-16T10:22:31;33.30;32.10
43697;DHT22;29301;47.620;19.560;2023-07-16T10:24:57;33.20;32.80
43697;DHT22;29301;47.620;19.560;2023-07-16T10:27:30;33.40;32.90
43697;DHT22;29301;47.620;19.560;2023-07-16T10:30:00;33.70;32.30
43697;DHT22;29301;47.620;19.560;2023-07-16T10:32:31;33.40;33.00
43697;DHT22;29301;47.620;19.560;2023-07-16T10:34:57;33.60;32.50
43697;DHT22;29301;47.620;19.560;2023-07-16T10:37:24;33.70;33.60
43697;DHT22;29301;47.620;19.560;2023-07-16T10:39:54;33.30;33.40
43697;DHT22;29301;47.620;19.560;2023-07-16T10:42:22;33.20;34.20
43697;DHT22;29301;47.620;19.560;2023-07-16T10:44:57;33.50;33.10
43697;DHT22;29301;47.620;19.560;2023-07-16T10:47:28;33.60;34.10
43697;DHT22;29301;47.620;19.560;2023-07-16T10:49:54;33.40;33.00
43697;DHT22;29301;47.620;19.560;2023-07-16T10:52:21;33.20;33.70
43697;DHT22;29301;47.620;19.560;2023-07-16T10:54:47;33.40;33.30
43697;DHT22;29301;47.620;19.560;2023-07-16T10:57:15;33.50;33.70
43697;DHT22;29301;47.620;19.560;2023-07-16T10:59:42;33.70;33.40
43697;DHT22;29301;47.620;19.560;2023-07-16T11:02:13;33.70;33.50
43697;DHT22;29301;47.620;19.560;2023-07-16T11:04:39;33.80;32.90
43697;DHT22;29301;47.620;19.560;2023-07-16T11:07:09;33.80;33.30
43697;DHT22;29301;47.620;19.560;2023-07-16T11:09:40;33.40;32.70
43697;DHT22;29301;47.620;19.560;2023-07-16T11:12:11;33.20;34.00
43697;DHT22;29301;47.620;19.560;2023-07-16T11:14:37;33.30;34.70
43697;DHT22;29301;47.620;19.560;2023-07-16T11:17:07;33.00;33.80
43697;DHT22;29301;47.620;19.560;2023-07-16T11:19:34;32.70;33.80
43697;DHT22;29301;47.620;19.560;2023-07-16T11:22:01;32.80;34.00
43697;DHT22;29301;47.620;19.560;2023-07-16T11:24:27;33.10;34.20
43697;DHT22;29301;47.620;19.560;2023-07-16T11:26:54;33.20;33.50
43697;DHT22;29301;47.620;19.560;2023-07-16T11:29:22;33.30;33.00
43697;DHT22;29301;47.620;19.560;2023-07-16T11:31:52;33.40;33.00
43697;DHT22;29301;47.620;19.560;2023-07-16T11:34:20;33.80;32.50
43697;DHT22;29301;47.620;19.560;2023-07-16T11:36:48;33.70;32.00
43697;DHT22;29301;47.620;19.560;2023-07-16T11:39:13;33.50;31.90
43697;DHT22;29301;47.620;19.560;2023-07-16T11:41:39;33.30;32.20
43697;DHT22;29301;47.620;19.560;2023-07-16T11:44:07;33.40;31.80
43697;DHT22;29301;47.620;19.560;2023-07-16T11:46:34;33.20;33.20
43697;DHT22;29301;47.620;19.560;2023-07-16T11:49:00;33.40;32.80
43697;DHT22;29301;47.620;19.560;2023-07-16T11:51:26;33.70;33.20
43697;DHT22;29301;47.620;19.560;2023-07-16T11:53:52;34.00;32.40
43697;DHT22;29301;47.620;19.560;2023-07-16T11:56:18;33.90;32.20
43697;DHT22;29301;47.620;19.560;2023-07-16T11:58:43;33.80;32.30
43697;DHT22;29301;47.620;19.560;2023-07-16T12:01:09;33.80;31.60
43697;DHT22;29301;47.620;19.560;2023-07-16T12:03:35;33.90;31.90
43697;DHT22;29301;47.620;19.560;2023-07-16T12:06:00;34.20;31.80
43697;DHT22;29301;47.620;19.560;2023-07-16T12:08:26;34.40;30.60
43697;DHT22;29301;47.620;19.560;2023-07-16T12:10:52;34.20;30.90
43697;DHT22;29301;47.620;19.560;2023-07-16T12:13:18;34.00;31.90
43697;DHT22;29301;47.620;19.560;2023-07-16T12:15:43;34.00;31.60
43697;DHT22;29301;47.620;19.560;2023-07-16T12:18:09;33.90;31.70
43697;DHT22;29301;47.620;19.560;2023-07-16T12:20:35;33.90;31.60
43697;DHT22;29301;47.620;19.560;2023-07-16T12:23:01;33.80;31.10
43697;DHT22;29301;47.620;19.560;2023-07-16T12:25:28;34.00;31.10
43697;DHT22;29301;47.620;19.560;2023-07-16T12:27:54;34.00;31.80
43697;DHT22;29301;47.620;19.560;2023-07-16T12:30:19;34.20;31.30
43697;DHT22;29301;47.620;19.560;2023-07-16T12:32:45;34.20;31.00
43697;DHT22;29301;47.620;19.560;2023-07-16T12:35:11;34.40;30.70
43697;DHT22;29301;47.620;19.560;2023-07-16T12:37:36;34.20;31.20
43697;DHT22;29301;47.620;19.560;2023-07-16T12:40:02;34.50;31.10
43697;DHT22;29301;47.620;19.560;2023-07-16T12:42:28;34.70;30.80
43697;DHT22;29301;47.620;19.560;2023-07-16T12:44:54;34.90;30.40
43697;DHT22;29301;47.620;19.560;2023-07-16T12:47:20;35.10;30.10
43697;DHT22;29301;47.620;19.560;2023-07-16T12:49:45;34.90;29.90
43697;DHT22;29301;47.620;19.560;2023-07-16T12:52:11;34.20;30.40
43697;DHT22;29301;47.620;19.560;2023-07-16T12:54:37;33.90;31.80
43697;DHT22;29301;47.620;19.560;2023-07-16T12:57:03;33.80;31.30
43697;DHT22;29301;47.620;19.560;2023-07-16T12:59:28;33.40;31.40
43697;DHT22;29301;47.620;19.560;2023-07-16T13:01:54;33.20;32.00
43697;DHT22;29301;47.620;19.560;2023-07-16T13:04:20;33.30;32.70
43697;DHT22;29301;47.620;19.560;2023-07-16T13:06:46;33.50;32.00
43697;DHT22;29301;47.620;19.560;2023-07-16T13:09:14;33.60;32.10
43697;DHT22;29301;47.620;19.560;2023-07-16T13:11:41;33.90;31.80
43697;DHT22;29301;47.620;19.560;2023-07-16T13:14:07;34.20;31.00
43697;DHT22;29301;47.620;19.560;2023-07-16T13:16:32;34.20;30.80
43697;DHT22;29301;47.620;19.560;2023-07-16T13:18:58;34.40;31.20
43697;DHT22;29301;47.620;19.560;2023-07-16T13:21:23;34.40;31.10
43697;DHT22;29301;47.620;19.560;2023-07-16T13:23:49;34.20;30.80
43697;DHT22;29301;47.620;19.560;2023-07-16T13:26:15;33.90;31.30
43697;DHT22;29301;47.620;19.560;2023-07-16T13:28:40;33.90;31.60
43697;DHT22;29301;47.620;19.560;2023-07-16T13:31:06;33.80;31.70
43697;DHT22;29301;47.620;19.560;2023-07-16T13:33:32;33.90;31.10
43697;DHT22;29301;47.620;19.560;2023-07-16T13:35:58;34.20;30.90
43697;DHT22;29301;47.620;19.560;2023-07-16T13:38:26;34.30;30.40
43697;DHT22;29301;47.620;19.560;2023-07-16T13:40:52;34.20;30.20
43697;DHT22;29301;47.620;19.560;2023-07-16T13:43:18;34.00;30.90
43697;DHT22;29301;47.620;19.560;2023-07-16T13:45:43;34.10;30.40
43697;DHT22;29301;47.620;19.560;2023-07-16T13:48:09;34.20;30.40
43697;DHT22;29301;47.620;19.560;2023-07-16T13:50:35;34.20;30.50
43697;DHT22;29301;47.620;19.560;2023-07-16T13:53:00;34.40;29.90
43697;DHT22;29301;47.620;19.560;2023-07-16T13:55:27;34.30;30.00
43697;DHT22;29301;47.620;19.560;2023-07-16T13:57:54;34.20;30.20
43697;DHT22;29301;47.620;19.560;2023-07-16T14:00:21;34.20;30.30
43697;DHT22;29301;47.620;19.560;2023-07-16T14:02:47;34.10;30.00
43697;DHT22;29301;47.620;19.560;2023-07-16T14:05:12;34.10;30.00
43697;DHT22;29301;47.620;19.560;2023-07-16T14:07:38;33.90;30.00
43697;DHT22;29301;47.620;19.560;2023-07-16T14:10:04;33.90;30.00
43697;DHT22;29301;47.620;19.560;2023-07-16T14:12:30;33.70;30.40
43697;DHT22;29301;47.620;19.560;2023-07-16T14:14:56;33.70;31.00
43697;DHT22;29301;47.620;19.560;2023-07-16T14:17:21;33.70;30.70
43697;DHT22;29301;47.620;19.560;2023-07-16T14:19:49;33.70;31.50
43697;DHT22;29301;47.620;19.560;2023-07-16T14:22:14;33.70;31.60
43697;DHT22;29301;47.620;19.560;2023-07-16T14:24:41;33.70;31.10
43697;DHT22;29301;47.620;19.560;2023-07-16T14:27:08;33.70;31.10
43697;DHT22;29301;47.620;19.560;2023-07-16T14:29:36;33.70;31.20
43697;DHT22;29301;47.620;19.560;2023-07-16T14:32:02;33.90;31.60
43697;DHT22;29301;47.620;19.560;2023-07-16T14:34:28;34.00;31.50
43697;DHT22;29301;47.620;19.560;2023-07-16T14:36:54;34.00;31.10
43697;DHT22;29301;47.620;19.560;2023-07-16T14:39:19;34.00;31.20
43697;DHT22;29301;47.620;19.560;2023-07-16T14:41:45;33.90;31.40
43697;DHT22;29301;47.620;19.560;2023-07-16T14:44:11;33.80;31.40
43697;DHT22;29301;47.620;19.560;2023-07-16T14:46:37;33.80;32.00
43697;DHT22;29301;47.620;19.560;2023-07-16T14:49:03;33.80;32.00
43697;DHT22;29301;47.620;19.560;2023-07-16T14:51:29;33.80;31.90
43697;DHT22;29301;47.620;19.560;2023-07-16T14:54:05;33.90;31.70
43697;DHT22;29301;47.620;19.560;2023-07-16T14:56:32;33.80;31.20
43697;DHT22;29301;47.620;19.560;2023-07-16T14:58:58;33.80;31.40
43697;DHT22;29301;47.620;19.560;2023-07-16T15:01:23;33.80;31.60
43697;DHT22;29301;47.620;19.560;2023-07-16T15:03:49;33.80;31.60
43697;DHT22;29301;47.620;19.560;2023-07-16T15:06:14;33.70;32.00
43697;DHT22;29301;47.620;19.560;2023-07-16T15:08:40;33.60;32.10
43697;DHT22;29301;47.620;19.560;2023-07-16T15:11:06;33.60;32.40
43697;DHT22;29301;47.620;19.560;2023-07-16T15:13:31;33.70;32.40
43697;DHT22;29301;47.620;19.560;2023-07-16T15:15:58;33.60;32.10
43697;DHT22;29301;47.620;19.560;2023-07-16T15:18:25;33.60;32.20
43697;DHT22;29301;47.620;19.560;2023-07-16T15:20:59;33.70;32.20
43697;DHT22;29301;47.620;19.560;2023-07-16T15:23:26;33.60;33.20
43697;DHT22;29301;47.620;19.560;2023-07-16T15:25:53;33.30;33.40
43697;DHT22;29301;47.620;19.560;2023-07-16T15:28:18;33.20;34.00